Time;durP1;ratioP1;P1;durP2;ratioP2;P2;SDS_P1;SDS_P2;PMS_P1;PMS_P2;Temp;Humidity;BMP_temperature;BMP_pressure;BME280_temperature;BME280_humidity;BME280_pressure;Samples;Min_cycle;Max_cycle;Signal;HPM_P1;HPM_P2
2022/03/16 00:02:20;;;;;;;28.03;7.70;;;;;;;0.91;35.69;101224.41;4991864;28;20046;-66
2022/03/16 00:04:51;;;;;;;37.33;7.10;;;;;;;1.15;35.93;101236.56;4986544;28;20878;-67
2022/03/16 00:07:18;;;;;;;25.98;6.85;;;;;;;1.03;35.85;101237.03;4989162;28;20039;-67
2022/03/16 00:09:44;;;;;;;23.23;6.23;;;;;;;0.99;36.25;101230.19;4980406;28;20042;-67
2022/03/16 00:12:11;;;;;;;41.90;7.07;;;;;;;1.00;36.03;101237.16;4982953;28;20906;-68
2022/03/16 00:14:37;;;;;;;23.57;6.23;;;;;;;0.98;35.99;101236.34;5005702;28;20053;-69
2022/03/16 00:17:04;;;;;;;24.57;7.07;;;;;;;0.98;36.08;101231.97;5003605;28;20069;-67
2022/03/16 00:19:31;;;;;;;24.97;6.37;;;;;;;0.92;36.27;101241.81;4972390;28;20047;-65
2022/03/16 00:21:58;;;;;;;22.00;7.13;;;;;;;0.97;36.14;101237.28;5005726;28;20050;-66
2022/03/16 00:24:24;;;;;;;23.40;6.53;;;;;;;0.71;36.12;101219.94;4973001;28;20046;-65
2022/03/16 00:26:49;;;;;;;25.73;7.20;;;;;;;0.61;37.29;101234.28;4990210;28;20045;-65
2022/03/16 00:29:15;;;;;;;22.33;6.97;;;;;;;0.74;36.84;101245.97;4989525;28;20050;-65
2022/03/16 00:31:41;;;;;;;22.57;6.43;;;;;;;0.75;36.72;101237.22;5004211;28;20064;-66
2022/03/16 00:34:09;;;;;;;25.90;6.13;;;;;;;0.79;36.40;101240.56;4975076;28;20046;-65
2022/03/16 00:36:35;;;;;;;28.73;7.07;;;;;;;0.69;37.00;101236.59;5009004;28;20069;-65
2022/03/16 00:39:01;;;;;;;24.30;6.73;;;;;;;0.48;36.65;101206.88;4992745;28;20046;-65
2022/03/16 00:41:27;;;;;;;20.60;6.40;;;;;;;0.62;36.69;101250.78;5009097;28;20054;-70
2022/03/16 00:43:53;;;;;;;20.23;5.97;;;;;;;0.67;36.25;101241.03;5009271;28;20042;-66
2022/03/16 00:46:19;;;;;;;32.83;6.73;;;;;;;0.64;37.13;101251.59;5009079;28;20394;-66
2022/03/16 00:48:45;;;;;;;16.03;6.00;;;;;;;0.72;37.00;101245.19;5009374;28;20145;-65
2022/03/16 00:51:11;;;;;;;27.13;6.97;;;;;;;0.76;36.23;101243.28;5009359;28;20041;-65
2022/03/16 00:53:39;;;;;;;17.27;6.87;;;;;;;0.68;36.76;101248.81;5013604;28;20056;-65
2022/03/16 00:56:07;;;;;;;19.00;6.30;;;;;;;0.71;37.19;101250.50;5013159;28;20390;-65
2022/03/16 00:58:33;;;;;;;19.17;6.20;;;;;;;0.65;36.79;101254.16;5014131;28;20052;-66
2022/03/16 01:01:00;;;;;;;22.03;6.57;;;;;;;0.60;36.69;101256.09;5012975;28;20046;-65
2022/03/16 01:03:27;;;;;;;28.67;7.93;;;;;;;0.53;36.55;101227.63;5012747;28;20045;-66
2022/03/16 01:05:53;;;;;;;29.20;7.07;;;;;;;0.53;36.64;101249.38;5012825;28;20084;-66
2022/03/16 01:08:22;;;;;;;38.83;7.30;;;;;;;0.55;37.34;101251.94;4964419;28;20041;-66
2022/03/16 01:10:47;;;;;;;31.80;7.03;;;;;;;0.35;37.20;101220.44;4980418;28;20038;-66
2022/03/16 01:13:13;;;;;;;47.03;7.27;;;;;;;0.42;37.17;101241.06;5012794;28;20060;-65
2022/03/16 01:15:41;;;;;;;32.77;7.60;;;;;;;0.23;36.89;101205.22;4980384;28;20045;-65
2022/03/16 01:18:06;;;;;;;32.90;7.07;;;;;;;0.34;36.91;101226.59;5014437;28;20050;-65
2022/03/16 01:20:32;;;;;;;24.93;7.07;;;;;;;0.40;37.08;101244.66;4996894;28;20556;-65
2022/03/16 01:22:58;;;;;;;17.60;6.33;;;;;;;0.44;37.14;101254.09;4997391;28;20065;-66
2022/03/16 01:25:24;;;;;;;23.47;6.07;;;;;;;0.41;37.23;101249.84;4980971;28;20096;-67
2022/03/16 01:27:52;;;;;;;18.70;6.43;;;;;;;0.40;36.88;101252.50;5013120;28;20048;-65
2022/03/16 01:31:10;;;;;;;24.47;6.97;;;;;;;0.61;37.12;101249.97;5012571;28;20046;-65
2022/03/16 01:33:39;;;;;;;34.00;6.77;;;;;;;0.49;37.28;101249.56;5012203;28;20103;-65
2022/03/16 01:36:07;;;;;;;25.17;6.83;;;;;;;0.31;37.41;101230.16;4995955;28;20093;-65
2022/03/16 01:38:33;;;;;;;24.93;6.40;;;;;;;0.39;37.54;101251.66;4995809;28;20573;-65
2022/03/16 01:40:59;;;;;;;18.53;7.20;;;;;;;0.17;37.29;101223.72;4979597;28;20167;-65
2022/03/16 01:43:25;;;;;;;21.60;6.57;;;;;;;0.10;38.00;101246.59;4995815;28;20521;-69
2022/03/16 01:45:51;;;;;;;17.43;6.57;;;;;;;0.36;37.80;101253.50;4963486;28;20510;-65
2022/03/16 01:48:18;;;;;;;18.83;6.40;;;;;;;0.34;37.94;101256.19;4979464;28;20049;-65
2022/03/16 01:50:45;;;;;;;16.27;6.70;;;;;;;0.38;37.58;101255.19;5013154;28;20048;-65
2022/03/16 01:53:12;;;;;;;21.30;6.73;;;;;;;0.22;37.73;101240.94;4996012;28;20081;-65
2022/03/16 01:55:42;;;;;;;16.13;6.80;;;;;;;0.44;37.55;101256.69;4979376;28;20216;-66
2022/03/16 01:58:09;;;;;;;25.70;6.83;;;;;;;0.37;37.97;101256.06;4979379;28;20046;-66
2022/03/16 02:00:35;;;;;;;23.10;6.80;;;;;;;0.14;37.71;101232.50;5011827;28;20050;-65
2022/03/16 02:03:01;;;;;;;28.43;7.90;;;;;;;0.21;37.69;101256.66;5011607;28;20122;-65
2022/03/16 02:05:28;;;;;;;23.70;7.20;;;;;;;0.29;37.67;101257.25;4979159;28;20038;-67
2022/03/16 02:07:54;;;;;;;17.70;7.57;;;;;;;0.27;37.65;101248.59;5012090;28;20057;-65
2022/03/16 02:10:21;;;;;;;22.03;7.53;;;;;;;0.28;37.73;101251.16;5011619;28;20069;-65
2022/03/16 02:12:52;;;;;;;24.80;8.67;;;;;;;0.35;37.98;101257.91;4995379;28;20085;-65
2022/03/16 02:15:18;;;;;;;25.50;7.53;;;;;;;0.24;37.73;101249.59;4995268;28;20045;-65
2022/03/16 02:17:45;;;;;;;22.63;7.77;;;;;;;0.13;38.19;101243.88;4993671;28;20038;-65
2022/03/16 02:20:11;;;;;;;15.50;7.20;;;;;;;0.21;37.98;101247.06;5011323;28;20041;-66
2022/03/16 02:22:50;;;;;;;16.90;6.40;;;;;;;0.30;38.14;101244.13;5010108;28;20061;-66
2022/03/16 02:25:16;;;;;;;27.87;7.00;;;;;;;0.11;37.95;101237.84;4977547;28;20052;-67
2022/03/16 02:27:42;;;;;;;27.93;7.67;;;;;;;0.09;37.87;101233.59;5011113;28;20038;-65
2022/03/16 02:30:08;;;;;;;28.17;7.20;;;;;;;0.17;38.06;101248.06;5011393;28;20088;-66
2022/03/16 02:32:34;;;;;;;19.77;7.47;;;;;;;0.15;38.10;101255.13;5012416;28;20049;-65
2022/03/16 02:35:00;;;;;;;23.53;7.83;;;;;;;0.14;38.35;101255.19;4962238;28;20050;-65
2022/03/16 02:37:26;;;;;;;21.63;7.17;;;;;;;0.08;38.20;101258.84;4995260;28;20060;-65
2022/03/16 02:39:52;;;;;;;13.63;6.43;;;;;;;0.02;38.48;101259.06;4962522;28;20042;-65
2022/03/16 02:42:18;;;;;;;16.40;6.47;;;;;;;0.00;38.62;101256.50;4978759;28;20050;-65
2022/03/16 02:44:44;;;;;;;19.60;6.40;;;;;;;-0.15;38.51;101245.72;4994513;28;20046;-65
2022/03/16 02:47:10;;;;;;;16.80;6.40;;;;;;;-0.01;38.55;101261.78;4994779;28;20041;-65
2022/03/16 02:49:36;;;;;;;14.87;6.60;;;;;;;-0.06;38.30;101266.28;5010972;28;20410;-65
2022/03/16 02:52:08;;;;;;;23.10;7.03;;;;;;;0.09;38.66;101257.09;5011198;28;20037;-65
2022/03/16 02:54:35;;;;;;;14.63;6.13;;;;;;;-0.19;38.68;101241.53;4962404;28;20061;-65
2022/03/16 02:57:00;;;;;;;19.80;5.87;;;;;;;-0.11;38.67;101269.06;4994245;28;20044;-65
2022/03/16 02:59:27;;;;;;;15.47;6.07;;;;;;;-0.23;38.46;101247.75;5011105;28;20484;-65
2022/03/16 03:01:53;;;;;;;14.83;6.10;;;;;;;-0.25;38.73;101260.84;4946042;28;20042;-65
2022/03/16 03:04:18;;;;;;;21.30;6.83;;;;;;;-0.24;38.80;101262.56;4978154;28;20184;-65
2022/03/16 03:06:44;;;;;;;13.80;6.97;;;;;;;-0.25;38.81;101265.22;5010515;28;20127;-65
2022/03/16 03:09:13;;;;;;;16.47;6.93;;;;;;;-0.28;39.13;101273.16;4962227;28;20041;-65
2022/03/16 03:11:41;;;;;;;15.38;7.03;;;;;;;-0.30;39.33;101260.16;4979178;28;20042;-65
2022/03/16 03:14:07;;;;;;;25.33;8.47;;;;;;;-0.29;39.18;101256.63;4994053;28;20048;-65
2022/03/16 03:16:33;;;;;;;20.47;8.83;;;;;;;-0.29;39.39;101269.69;4993700;28;20049;-65
2022/03/16 03:18:58;;;;;;;21.13;8.50;;;;;;;-0.30;39.67;101270.59;4962397;28;20052;-65
2022/03/16 03:21:24;;;;;;;19.50;8.83;;;;;;;-0.36;39.76;101265.59;4994320;28;20053;-65
2022/03/16 03:23:50;;;;;;;21.13;8.40;;;;;;;-0.29;39.82;101274.91;4993951;28;20095;-65
2022/03/16 03:26:16;;;;;;;21.73;8.77;;;;;;;-0.31;39.69;101271.47;4994163;28;20041;-65
2022/03/16 03:28:41;;;;;;;25.03;8.53;;;;;;;-0.35;40.25;101280.34;4978073;28;20064;-65
2022/03/16 03:31:07;;;;;;;21.77;8.90;;;;;;;-0.39;40.11;101270.91;4994121;28;20046;-65
2022/03/16 03:33:35;;;;;;;16.70;8.43;;;;;;;-0.16;39.97;101280.59;4977578;28;20046;-65
2022/03/16 03:36:01;;;;;;;22.90;8.00;;;;;;;-0.35;39.78;101277.72;4993969;28;20049;-66
2022/03/16 03:38:27;;;;;;;14.33;7.90;;;;;;;-0.31;39.96;101292.38;4961914;28;20400;-65
2022/03/16 03:40:53;;;;;;;18.53;8.27;;;;;;;-0.37;40.12;101281.28;4994032;28;20049;-65
2022/03/16 03:43:19;;;;;;;18.03;8.67;;;;;;;-0.46;40.00;101268.53;4992779;28;20056;-66
2022/03/16 03:45:44;;;;;;;25.47;9.63;;;;;;;-0.29;40.30;101294.94;5008246;28;20038;-65
2022/03/16 03:48:10;;;;;;;21.87;10.50;;;;;;;-0.34;40.04;101292.47;5010696;28;20046;-65
2022/03/16 03:50:36;;;;;;;21.93;10.13;;;;;;;-0.49;40.35;101272.09;4994003;28;20045;-65
2022/03/16 03:53:02;;;;;;;19.53;9.93;;;;;;;-0.31;40.20;101296.75;4993340;28;20053;-68
2022/03/16 03:55:27;;;;;;;20.37;10.60;;;;;;;-0.32;40.16;101306.34;4994240;28;20128;-65
2022/03/16 03:57:53;;;;;;;20.93;9.33;;;;;;;-0.32;40.11;101295.88;4993639;28;20046;-64
2022/03/16 04:00:19;;;;;;;28.07;10.07;;;;;;;-0.28;39.99;101307.09;4977612;28;20042;-65
2022/03/16 04:02:48;;;;;;;19.20;9.10;;;;;;;-0.06;39.76;101310.69;4945621;28;20048;-65
2022/03/16 04:05:17;;;;;;;26.80;10.30;;;;;;;-0.09;40.00;101313.41;4993497;28;20575;-65
2022/03/16 04:07:43;;;;;;;21.03;8.53;;;;;;;-0.48;40.22;101263.34;4993549;28;20041;-65
2022/03/16 04:10:09;;;;;;;19.03;9.60;;;;;;;-0.19;40.16;101307.66;4993653;28;20046;-65
2022/03/16 04:12:35;;;;;;;21.23;9.40;;;;;;;-0.31;40.03;101281.09;5011191;28;20045;-65
2022/03/16 04:15:01;;;;;;;30.60;9.80;;;;;;;-0.17;39.90;101318.88;5010037;28;20045;-65
2022/03/16 04:17:28;;;;;;;25.67;9.83;;;;;;;-0.16;39.93;101315.38;4994229;28;20049;-65
2022/03/16 04:19:54;;;;;;;25.27;10.07;;;;;;;-0.12;39.95;101310.91;4993525;28;20053;-65
2022/03/16 04:22:20;;;;;;;24.57;10.00;;;;;;;-0.12;39.88;101321.34;4993545;28;21181;-67
2022/03/16 04:24:46;;;;;;;22.13;10.07;;;;;;;-0.09;39.72;101323.84;4993282;28;20077;-67
2022/03/16 04:27:11;;;;;;;29.60;10.33;;;;;;;-0.03;39.44;101332.34;4994543;28;20096;-67
2022/03/16 04:29:37;;;;;;;29.07;11.40;;;;;;;0.07;39.33;101326.81;4981059;28;20405;-67
2022/03/16 04:32:04;;;;;;;29.23;11.07;;;;;;;0.12;39.21;101332.75;4997713;28;20502;-66
2022/03/16 04:34:29;;;;;;;31.47;12.60;;;;;;;0.14;39.28;101330.94;4997353;28;20038;-72
2022/03/16 04:36:55;;;;;;;38.40;14.07;;;;;;;0.14;39.34;101342.22;4965315;28;20414;-70
2022/03/16 04:39:21;;;;;;;40.87;13.83;;;;;;;0.13;39.08;101313.53;4980848;28;20506;-68
2022/03/16 04:41:47;;;;;;;36.07;14.60;;;;;;;0.25;38.88;101328.84;5007915;28;20049;-68
2022/03/16 04:44:13;;;;;;;34.60;14.37;;;;;;;0.23;38.90;101336.69;4995042;28;20050;-69
2022/03/16 04:46:39;;;;;;;34.20;14.03;;;;;;;0.29;38.97;101338.25;5013232;28;20579;-68
2022/03/16 04:49:05;;;;;;;34.20;15.57;;;;;;;0.32;38.99;101340.75;4995931;28;20041;-68
2022/03/16 04:51:30;;;;;;;39.40;17.10;;;;;;;0.33;39.07;101335.50;4996163;28;20164;-66
2022/03/16 04:53:56;;;;;;;36.67;16.53;;;;;;;0.34;39.69;101334.56;4970123;28;20540;-70
2022/03/16 04:56:22;;;;;;;33.57;15.80;;;;;;;0.40;39.35;101344.81;4984741;28;20088;-69
2022/03/16 04:58:48;;;;;;;36.13;15.37;;;;;;;0.45;39.09;101342.03;4986002;28;20567;-72
2022/03/16 05:01:14;;;;;;;46.23;17.93;;;;;;;0.48;38.92;101342.78;4983823;28;20034;-75
2022/03/16 05:03:40;;;;;;;40.13;17.00;;;;;;;0.54;38.68;101341.75;4992387;28;20065;-73
2022/03/16 05:06:06;;;;;;;43.40;19.00;;;;;;;0.62;38.31;101347.53;4992724;28;20565;-71
2022/03/16 05:08:37;;;;;;;51.63;19.53;;;;;;;0.70;38.38;101342.88;4982656;28;20421;-73
2022/03/16 05:11:04;;;;;;;44.27;19.07;;;;;;;0.56;38.92;101309.41;5001029;28;20054;-72
2022/03/16 05:13:30;;;;;;;42.83;18.67;;;;;;;0.80;38.70;101346.91;5009557;28;20056;-71
2022/03/16 05:15:56;;;;;;;44.73;19.90;;;;;;;0.83;38.44;101346.78;4993245;28;20038;-71
2022/03/16 05:18:29;;;;;;;47.50;21.23;;;;;;;0.85;38.16;101352.78;4977088;28;20598;-70
2022/03/16 05:21:07;;;;;;;54.42;23.35;;;;;;;0.90;38.39;101356.97;4995184;28;20055;-70
2022/03/16 05:23:34;;;;;;;54.03;21.92;;;;;;;0.94;37.80;101336.78;4994622;28;20057;-70
2022/03/16 05:26:00;;;;;;;49.13;20.43;;;;;;;1.06;37.97;101352.03;4993413;28;20045;-70
2022/03/16 05:28:25;;;;;;;55.13;21.43;;;;;;;1.14;37.59;101357.81;4994152;28;20092;-70
2022/03/16 05:30:51;;;;;;;45.70;20.07;;;;;;;1.16;37.55;101361.22;5011179;28;20042;-70
2022/03/16 05:33:17;;;;;;;43.33;18.63;;;;;;;1.28;37.20;101368.63;4994987;28;20166;-70
2022/03/16 05:35:43;;;;;;;41.50;15.50;;;;;;;1.27;37.24;101359.94;4979007;28;20493;-71
2022/03/16 05:38:12;;;;;;;37.87;12.27;;;;;;;1.45;36.93;101360.97;4978471;28;20056;-70
2022/03/16 05:40:42;;;;;;;30.73;11.00;;;;;;;1.61;36.42;101354.25;4994834;28;20033;-69
2022/03/16 05:43:10;;;;;;;21.93;10.27;;;;;;;1.50;36.33;101364.28;4994998;28;20410;-70
2022/03/16 05:45:37;;;;;;;24.33;10.40;;;;;;;1.63;36.21;101358.50;4978973;28;20876;-71
2022/03/16 05:48:03;;;;;;;28.33;9.57;;;;;;;1.69;36.07;101370.53;5011139;28;20405;-70
2022/03/16 05:50:29;;;;;;;18.70;9.47;;;;;;;1.65;36.18;101351.44;4995124;28;20050;-72
2022/03/16 05:52:59;;;;;;;14.10;8.40;;;;;;;1.97;36.03;101372.91;4978486;28;20052;-71
2022/03/16 05:55:28;;;;;;;13.57;7.47;;;;;;;2.08;35.18;101371.53;5010759;28;20506;-70
2022/03/16 05:57:54;;;;;;;17.57;7.90;;;;;;;1.97;35.69;101373.72;4994591;28;20061;-70
2022/03/16 06:00:24;;;;;;;16.53;8.40;;;;;;;2.03;35.30;101349.91;4994911;28;20049;-70
2022/03/16 06:02:50;;;;;;;15.13;8.20;;;;;;;2.10;35.30;101374.09;4995047;28;20046;-70
2022/03/16 06:05:16;;;;;;;19.03;9.20;;;;;;;2.31;35.16;101391.53;4978509;28;20069;-70
2022/03/16 06:07:43;;;;;;;19.27;8.77;;;;;;;2.37;34.54;101370.34;5011993;28;20081;-70
2022/03/16 06:10:12;;;;;;;17.83;9.53;;;;;;;2.40;34.58;101355.31;4994492;28;20480;-70
2022/03/16 06:12:58;;;;;;;20.93;9.73;;;;;;;2.77;34.21;101379.03;4993600;28;20053;-70
2022/03/16 06:15:26;;;;;;;26.13;9.20;;;;;;;2.71;34.12;101387.19;4994380;28;20225;-70
2022/03/16 06:17:58;;;;;;;17.37;9.00;;;;;;;2.84;33.89;101382.25;4978067;28;20050;-70
2022/03/16 06:20:26;;;;;;;18.40;8.83;;;;;;;2.89;33.86;101383.75;5010690;28;20997;-71
2022/03/16 06:22:52;;;;;;;26.33;9.73;;;;;;;2.80;33.51;101364.94;4994379;28;20041;-71
2022/03/16 06:25:18;;;;;;;28.17;9.63;;;;;;;2.97;33.32;101383.41;4978069;28;20426;-70
2022/03/16 06:27:43;;;;;;;20.90;8.77;;;;;;;3.09;33.16;101393.41;4993730;28;20044;-70
2022/03/16 06:30:11;;;;;;;16.73;8.93;;;;;;;3.31;32.88;101396.75;4994316;28;20413;-71
2022/03/16 06:32:37;;;;;;;17.47;8.67;;;;;;;3.28;33.08;101397.75;4994067;28;20580;-70
2022/03/16 06:35:06;;;;;;;16.00;8.20;;;;;;;3.56;32.54;101388.59;4977988;28;20107;-71
2022/03/16 06:37:33;;;;;;;16.50;7.97;;;;;;;3.58;32.19;101394.63;4993889;28;20089;-70
2022/03/16 06:39:58;;;;;;;16.87;7.60;;;;;;;3.55;32.21;101392.16;4977705;28;20041;-70
2022/03/16 06:42:24;;;;;;;17.17;7.57;;;;;;;3.69;32.10;101398.44;5009931;28;20339;-70
2022/03/16 06:44:50;;;;;;;18.70;7.43;;;;;;;3.63;31.60;101369.84;4960903;28;20074;-70
2022/03/16 06:47:16;;;;;;;17.47;7.47;;;;;;;3.88;31.63;101396.66;4977030;28;20038;-70
2022/03/16 06:49:42;;;;;;;13.30;7.40;;;;;;;4.04;31.39;101402.91;4960144;28;20507;-70
2022/03/16 06:52:08;;;;;;;17.63;7.83;;;;;;;4.19;31.00;101410.03;4976986;28;20052;-69
2022/03/16 06:54:33;;;;;;;13.20;6.13;;;;;;;4.31;30.47;101404.16;4976948;28;20108;-70
2022/03/16 06:56:59;;;;;;;16.73;7.80;;;;;;;4.48;30.56;101398.94;5009130;28;20037;-69
2022/03/16 06:59:25;;;;;;;18.00;6.93;;;;;;;4.54;30.20;101403.03;4976902;28;20052;-70
2022/03/16 07:01:51;;;;;;;17.33;7.50;;;;;;;4.77;29.64;101392.19;4992910;28;20529;-70
2022/03/16 07:04:17;;;;;;;17.50;7.67;;;;;;;4.94;29.61;101395.66;5009404;28;20058;-70
2022/03/16 07:06:43;;;;;;;24.10;7.87;;;;;;;5.13;29.21;101400.81;4994022;28;20510;-69
2022/03/16 07:09:09;;;;;;;17.27;7.93;;;;;;;5.18;29.05;101402.25;4992829;28;20049;-69
2022/03/16 07:11:35;;;;;;;19.00;7.83;;;;;;;5.37;28.91;101410.03;4976087;28;20042;-69
2022/03/16 07:16:45;;;;;;;18.27;7.90;;;;;;;5.57;28.42;101417.72;4995104;28;20539;-68
2022/03/16 07:19:11;;;;;;;13.03;6.80;;;;;;;5.71;28.35;101411.69;4992896;28;20045;-69
2022/03/16 07:21:38;;;;;;;14.47;6.73;;;;;;;5.85;27.43;101417.09;4960709;28;20046;-68
2022/03/16 07:24:05;;;;;;;14.73;8.00;;;;;;;6.18;27.45;101425.75;5009808;28;20049;-69
2022/03/16 07:26:30;;;;;;;20.27;7.17;;;;;;;6.42;26.96;101427.84;5009352;28;20497;-69
2022/03/16 07:28:56;;;;;;;19.30;7.80;;;;;;;7.13;26.20;101414.81;4992213;28;20111;-70
2022/03/16 07:31:23;;;;;;;11.80;6.60;;;;;;;8.69;24.28;101398.50;4976094;28;20081;-70
2022/03/16 07:33:48;;;;;;;12.60;5.95;;;;;;;11.85;20.50;101405.69;5008745;28;20420;-70
2022/03/16 07:36:16;;;;;;;14.32;6.38;;;;;;;15.01;17.35;101417.00;4992963;28;20145;-70
2022/03/16 07:38:42;;;;;;;12.55;5.95;;;;;;;17.64;15.07;101419.19;5008759;28;20099;-70
2022/03/16 07:41:08;;;;;;;12.00;5.72;;;;;;;19.89;12.83;101407.59;4960152;28;20048;-70
2022/03/16 07:43:34;;;;;;;13.93;6.35;;;;;;;21.85;11.26;101400.25;4976741;28;20042;-71
2022/03/16 07:46:00;;;;;;;13.65;6.38;;;;;;;23.27;10.09;101397.41;4992657;28;20048;-71
2022/03/16 07:48:26;;;;;;;12.63;6.20;;;;;;;24.59;8.97;101405.97;4976132;28;20100;-71
2022/03/16 07:50:52;;;;;;;10.35;5.18;;;;;;;25.62;7.69;101411.66;4976123;28;20053;-71
2022/03/16 07:53:18;;;;;;;11.60;6.72;;;;;;;26.12;7.51;101405.44;4992240;28;20041;-70
2022/03/16 07:55:46;;;;;;;8.00;5.88;;;;;;;26.73;7.22;101404.91;4993045;28;20049;-71
2022/03/16 07:58:12;;;;;;;13.65;5.97;;;;;;;27.35;6.77;101391.19;5008297;28;20477;-70
2022/03/16 08:00:38;;;;;;;9.20;6.10;;;;;;;27.96;6.18;101386.53;4976347;28;20050;-71
2022/03/16 08:03:04;;;;;;;9.52;5.85;;;;;;;28.44;5.70;101395.56;4960913;28;20080;-72
2022/03/16 08:05:37;;;;;;;12.48;6.00;;;;;;;28.78;5.43;101369.41;4977902;28;20058;-71
2022/03/16 08:08:03;;;;;;;15.65;5.85;;;;;;;29.38;5.24;101384.59;4992850;28;20041;-70
2022/03/16 08:10:32;;;;;;;9.73;6.00;;;;;;;29.58;5.05;101380.41;4992301;28;20048;-71
2022/03/16 08:12:58;;;;;;;14.93;6.47;;;;;;;29.79;4.74;101386.34;4987689;28;20042;-72
2022/03/16 08:15:24;;;;;;;11.80;6.25;;;;;;;29.70;4.68;101376.84;4988788;28;20562;-70
2022/03/16 08:17:50;;;;;;;15.25;6.40;;;;;;;29.78;4.99;101380.06;4957130;28;20125;-71
2022/03/16 08:20:16;;;;;;;12.45;5.95;;;;;;;29.87;4.50;101386.81;5004899;28;20057;-71
2022/03/16 08:22:42;;;;;;;12.40;5.80;;;;;;;30.16;4.27;101372.06;4957083;28;20070;-70
2022/03/16 08:25:11;;;;;;;8.80;5.38;;;;;;;30.75;3.97;101379.00;4973579;28;20038;-70
2022/03/16 08:27:37;;;;;;;12.52;6.45;;;;;;;30.89;4.20;101377.59;4973067;28;20073;-70
2022/03/16 08:30:05;;;;;;;10.75;6.38;;;;;;;31.13;3.77;101373.56;4996794;28;20049;-73
2022/03/16 08:32:31;;;;;;;11.98;6.28;;;;;;;31.10;3.63;101376.81;4990252;28;20049;-73
2022/03/16 08:34:57;;;;;;;12.50;5.93;;;;;;;30.51;4.16;101377.41;4989671;28;20049;-72
2022/03/16 08:37:23;;;;;;;12.05;5.70;;;;;;;30.73;3.69;101372.88;5006888;28;20140;-72
2022/03/16 08:39:49;;;;;;;13.30;6.45;;;;;;;31.28;3.43;101376.53;4989421;28;20084;-71
2022/03/16 08:42:16;;;;;;;12.23;6.53;;;;;;;31.86;3.53;101367.81;5005828;28;20615;-71
2022/03/16 08:44:43;;;;;;;16.67;7.10;;;;;;;32.24;3.45;101370.44;5006033;28;20104;-71
2022/03/16 08:47:10;;;;;;;15.15;6.05;;;;;;;31.30;3.26;101346.13;5006421;28;20049;-71
2022/03/16 08:49:37;;;;;;;11.55;6.85;;;;;;;31.43;3.52;101365.81;5005166;28;20061;-71
2022/03/16 08:52:05;;;;;;;13.52;5.90;;;;;;;31.90;3.44;101352.44;5006118;28;20053;-70
2022/03/16 08:54:31;;;;;;;13.70;6.22;;;;;;;32.40;3.29;101353.88;5006952;28;20042;-70
2022/03/16 08:56:57;;;;;;;10.40;5.80;;;;;;;32.75;2.87;101366.31;4973210;28;20042;-70
2022/03/16 08:59:25;;;;;;;10.07;6.35;;;;;;;32.97;2.60;101365.13;4956733;28;20042;-70
2022/03/16 09:01:51;;;;;;;8.70;5.93;;;;;;;32.72;2.42;101362.16;5021944;28;20067;-70
2022/03/16 09:04:17;;;;;;;8.63;5.95;;;;;;;32.53;2.71;101358.97;4973093;28;20042;-70
2022/03/16 09:06:43;;;;;;;10.18;6.00;;;;;;;32.61;2.40;101330.13;4973096;28;20141;-69
2022/03/16 09:09:09;;;;;;;10.32;5.80;;;;;;;33.10;2.65;101363.84;4989335;28;20042;-71
2022/03/16 09:11:35;;;;;;;8.70;5.90;;;;;;;33.41;2.30;101369.34;4989085;28;20056;-70
2022/03/16 09:14:02;;;;;;;16.48;6.65;;;;;;;33.59;2.29;101352.34;4991835;28;20079;-71
2022/03/16 09:16:28;;;;;;;10.35;5.88;;;;;;;33.53;2.19;101358.94;4993350;28;20449;-70
2022/03/16 09:18:54;;;;;;;9.55;6.88;;;;;;;33.57;2.27;101353.69;4976346;28;20196;-70
2022/03/16 09:21:20;;;;;;;11.45;7.03;;;;;;;33.42;2.50;101361.91;4992216;28;20060;-70
2022/03/16 09:23:47;;;;;;;10.40;7.00;;;;;;;33.67;2.41;101359.28;4992892;28;20128;-70
2022/03/16 09:26:12;;;;;;;14.45;7.18;;;;;;;33.95;2.08;101364.41;4992884;28;20138;-71
2022/03/16 09:28:38;;;;;;;12.15;6.95;;;;;;;34.47;2.00;101356.84;4992733;28;20127;-71
2022/03/16 09:31:04;;;;;;;16.67;8.07;;;;;;;34.33;1.88;101361.19;4992090;28;20592;-71
2022/03/16 09:33:30;;;;;;;14.85;7.03;;;;;;;34.44;1.90;101353.78;4992485;28;20042;-71
2022/03/16 09:35:56;;;;;;;12.27;7.30;;;;;;;34.33;1.88;101352.91;5008919;28;20500;-71
2022/03/16 09:38:24;;;;;;;14.60;6.82;;;;;;;33.90;2.18;101354.19;4976434;28;20416;-71
2022/03/16 09:40:56;;;;;;;16.95;6.75;;;;;;;33.54;2.29;101337.72;4992459;28;20387;-71
2022/03/16 09:43:23;;;;;;;11.68;6.97;;;;;;;32.57;2.51;101326.22;4992046;28;20116;-71
2022/03/16 09:46:00;;;;;;;12.48;6.10;;;;;;;32.47;2.22;101343.50;5008338;28;20033;-70
2022/03/16 09:48:26;;;;;;;9.63;5.90;;;;;;;32.59;2.23;101338.66;4974872;28;20050;-71
2022/03/16 09:50:54;;;;;;;12.77;5.97;;;;;;;32.85;2.45;101347.94;4991769;28;20042;-71
2022/03/16 09:53:22;;;;;;;7.75;6.15;;;;;;;33.34;2.09;101348.59;5007879;28;20069;-70
2022/03/16 09:55:48;;;;;;;8.90;6.43;;;;;;;33.84;2.28;101346.13;5008384;28;20545;-70
2022/03/16 09:58:14;;;;;;;13.57;6.13;;;;;;;33.79;1.73;101335.91;4992327;28;20044;-71
2022/03/16 10:00:40;;;;;;;14.23;6.28;;;;;;;32.96;2.23;101341.47;4992023;28;20041;-71
2022/03/16 10:03:06;;;;;;;8.45;6.20;;;;;;;32.58;2.54;101328.72;5008432;28;20049;-71
2022/03/16 10:05:32;;;;;;;16.67;6.35;;;;;;;32.85;2.47;101342.44;5009538;28;20469;-71
2022/03/16 10:08:05;;;;;;;12.40;5.90;;;;;;;33.31;2.13;101335.34;5008453;28;20050;-71
2022/03/16 10:13:21;;;;;;;10.95;5.97;;;;;;;33.78;2.09;101339.75;5007454;28;20045;-71
2022/03/16 10:16:07;;;;;;;13.38;6.18;;;;;;;34.06;1.93;101332.97;5008099;28;20502;-71
2022/03/16 10:18:35;;;;;;;11.88;6.45;;;;;;;33.08;2.32;101335.75;4991314;28;20108;-70
2022/03/16 10:21:02;;;;;;;15.60;6.55;;;;;;;32.87;2.28;101336.66;4975722;28;20183;-71
2022/03/16 10:23:30;;;;;;;9.77;5.93;;;;;;;32.24;2.72;101330.03;5008398;28;20041;-70
2022/03/16 10:26:00;;;;;;;12.07;6.07;;;;;;;31.87;2.67;101331.81;4975659;28;20038;-70
2022/03/16 10:28:28;;;;;;;9.35;5.90;;;;;;;32.06;2.48;101318.56;5009290;28;20052;-70
2022/03/16 10:31:05;;;;;;;11.60;6.10;;;;;;;32.48;2.45;101327.81;4990898;28;20115;-71
2022/03/16 10:33:44;;;;;;;10.52;6.35;;;;;;;32.87;2.59;101328.41;5023968;28;20109;-69
2022/03/16 10:36:17;;;;;;;13.98;8.40;;;;;;;31.85;2.81;101335.88;4991238;28;20460;-70
2022/03/16 10:39:03;;;;;;;11.85;7.32;;;;;;;30.10;3.30;101331.09;4990436;28;20042;-70
2022/03/16 10:47:15;;;;;;;10.82;7.30;;;;;;;31.20;3.02;101333.03;4973549;28;20501;-70
2022/03/16 10:49:41;;;;;;;14.88;6.32;;;;;;;31.66;2.90;101331.78;5006355;28;20465;-70
2022/03/16 10:52:13;;;;;;;12.43;6.30;;;;;;;31.75;3.16;101328.34;5005901;28;20045;-70
2022/03/16 10:54:38;;;;;;;9.98;5.60;;;;;;;29.98;3.31;101330.31;5006805;28;20046;-70
2022/03/16 10:57:10;;;;;;;8.27;5.63;;;;;;;27.82;4.21;101328.50;5024179;28;20046;-70
2022/03/16 10:59:36;;;;;;;7.28;5.63;;;;;;;27.57;4.21;101321.47;4991444;28;20076;-69
2022/03/16 11:02:05;;;;;;;10.77;5.75;;;;;;;27.71;4.09;101315.59;5007159;28;20049;-70
2022/03/16 11:04:32;;;;;;;12.90;6.03;;;;;;;28.13;4.29;101316.53;4990994;28;20045;-69
2022/03/16 11:06:59;;;;;;;11.05;7.10;;;;;;;27.75;4.41;101326.91;4974495;28;20061;-70
2022/03/16 11:09:27;;;;;;;11.35;5.68;;;;;;;28.07;4.11;101320.19;5006897;28;20514;-67
2022/03/16 11:14:40;;;;;;;9.07;5.60;;;;;;;28.57;4.11;101296.13;4974419;28;20441;-68
2022/03/16 11:17:06;;;;;;;8.68;4.93;;;;;;;28.43;3.61;101320.06;4990389;28;20048;-68
2022/03/16 11:19:34;;;;;;;11.77;5.07;;;;;;;26.99;4.34;101315.53;4990717;28;20046;-67
2022/03/16 11:22:06;;;;;;;13.90;6.13;;;;;;;26.26;4.83;101324.50;5007972;28;20054;-67
2022/03/16 11:24:42;;;;;;;8.00;5.32;;;;;;;26.55;4.64;101317.56;4974708;28;20077;-67
2022/03/16 11:27:11;;;;;;;15.70;5.47;;;;;;;26.80;4.59;101321.19;4974421;28;20053;-67
2022/03/16 11:29:52;;;;;;;6.95;5.13;;;;;;;26.90;4.24;101319.63;4989953;28;20513;-68
2022/03/16 11:32:19;;;;;;;9.45;5.57;;;;;;;25.14;5.20;101301.44;5006539;28;20045;-67
2022/03/16 11:35:00;;;;;;;7.20;5.53;;;;;;;24.35;5.73;101310.66;4990457;28;20532;-67
2022/03/16 11:37:46;;;;;;;6.47;4.50;;;;;;;24.55;5.67;101308.78;4989962;28;20188;-67
2022/03/16 11:40:20;;;;;;;8.10;5.63;;;;;;;24.79;5.64;101311.75;4987753;28;20528;-69